Langruth, Canada
Current Conditions -  °F | °C
As of 7:00 PM on Tuesday 21 Oct 2014 (Local Time) from CYPG Reporting Station
Few Clouds Few Clouds  
Wind Chill: 15°   Ceiling: Unl
Heat Index: 15°   Visibility: 15mi
Dew Point:   Wind: 17mph
Humidity: 55%   Direction: 140°SE
Pressure: 29.78"   Gusts: 25mph
Location:  50.38°N, 98.67°W
Report Text: CYPG 220000Z 14015G22KT 15SM FEW140 15/06 A2978 RMK AC1 SLP091
Loading
Personal Weather Stations






























Interactive Weather Map
Tropical Storm Tracking
New forecast layout! Learn more

10-Day Weather Forecast

Advertisements
Track Severe Weather on mobile